sensor_id;sensor_type;location;lat;lon;timestamp;P1;durP1;ratioP1;P2;durP2;ratioP2
19006;SDS011;9636;47.382;8.480;2023-09-19T00:00:31;1.10;;;1.00;;
19006;SDS011;9636;47.382;8.480;2023-09-19T00:02:59;1.10;;;1.00;;
19006;SDS011;9636;47.382;8.480;2023-09-19T00:05:27;0.70;;;0.70;;
19006;SDS011;9636;47.382;8.480;2023-09-19T00:07:55;0.90;;;0.90;;
19006;SDS011;9636;47.382;8.480;2023-09-19T00:10:23;0.80;;;0.80;;
19006;SDS011;9636;47.382;8.480;2023-09-19T00:12:52;1.17;;;1.02;;
19006;SDS011;9636;47.382;8.480;2023-09-19T00:15:20;1.13;;;0.90;;
19006;SDS011;9636;47.382;8.480;2023-09-19T00:17:47;1.10;;;1.00;;
19006;SDS011;9636;47.382;8.480;2023-09-19T00:20:17;1.13;;;1.00;;
19006;SDS011;9636;47.382;8.480;2023-09-19T00:22:47;1.08;;;0.98;;
19006;SDS011;9636;47.382;8.480;2023-09-19T00:25:15;0.90;;;0.90;;
19006;SDS011;9636;47.382;8.480;2023-09-19T00:27:42;0.88;;;0.88;;
19006;SDS011;9636;47.382;8.480;2023-09-19T00:30:10;1.10;;;1.00;;
19006;SDS011;9636;47.382;8.480;2023-09-19T00:32:41;0.95;;;0.95;;
19006;SDS011;9636;47.382;8.480;2023-09-19T00:35:08;0.80;;;0.80;;
19006;SDS011;9636;47.382;8.480;2023-09-19T00:37:36;1.27;;;0.88;;
19006;SDS011;9636;47.382;8.480;2023-09-19T00:40:06;1.30;;;1.20;;
19006;SDS011;9636;47.382;8.480;2023-09-19T00:42:37;1.08;;;1.00;;
19006;SDS011;9636;47.382;8.480;2023-09-19T00:45:06;0.90;;;0.90;;
19006;SDS011;9636;47.382;8.480;2023-09-19T00:47:34;1.10;;;1.00;;
19006;SDS011;9636;47.382;8.480;2023-09-19T00:50:02;0.90;;;0.90;;
19006;SDS011;9636;47.382;8.480;2023-09-19T00:52:32;1.77;;;1.20;;
19006;SDS011;9636;47.382;8.480;2023-09-19T00:55:01;1.10;;;0.98;;
19006;SDS011;9636;47.382;8.480;2023-09-19T00:57:30;1.15;;;0.88;;
19006;SDS011;9636;47.382;8.480;2023-09-19T00:59:58;1.02;;;0.98;;
19006;SDS011;9636;47.382;8.480;2023-09-19T01:02:30;0.90;;;0.90;;
19006;SDS011;9636;47.382;8.480;2023-09-19T01:04:57;1.17;;;0.90;;
19006;SDS011;9636;47.382;8.480;2023-09-19T01:07:24;1.00;;;1.00;;
19006;SDS011;9636;47.382;8.480;2023-09-19T01:09:51;1.00;;;1.00;;
19006;SDS011;9636;47.382;8.480;2023-09-19T01:12:22;0.85;;;0.82;;
19006;SDS011;9636;47.382;8.480;2023-09-19T01:15:01;0.93;;;0.90;;
19006;SDS011;9636;47.382;8.480;2023-09-19T01:17:34;0.98;;;0.98;;
19006;SDS011;9636;47.382;8.480;2023-09-19T01:20:17;0.90;;;0.80;;
19006;SDS011;9636;47.382;8.480;2023-09-19T01:22:56;0.77;;;0.77;;
19006;SDS011;9636;47.382;8.480;2023-09-19T01:25:34;0.80;;;0.80;;
19006;SDS011;9636;47.382;8.480;2023-09-19T01:28:20;0.90;;;0.90;;
19006;SDS011;9636;47.382;8.480;2023-09-19T01:31:03;0.95;;;0.85;;
19006;SDS011;9636;47.382;8.480;2023-09-19T01:36:22;0.80;;;0.80;;
19006;SDS011;9636;47.382;8.480;2023-09-19T01:38:49;1.13;;;0.98;;
19006;SDS011;9636;47.382;8.480;2023-09-19T01:41:17;0.80;;;0.80;;
19006;SDS011;9636;47.382;8.480;2023-09-19T01:43:49;1.10;;;1.08;;
19006;SDS011;9636;47.382;8.480;2023-09-19T01:46:19;1.10;;;1.00;;
19006;SDS011;9636;47.382;8.480;2023-09-19T01:48:53;1.25;;;0.90;;
19006;SDS011;9636;47.382;8.480;2023-09-19T01:51:29;0.88;;;0.88;;
19006;SDS011;9636;47.382;8.480;2023-09-19T01:54:01;1.17;;;0.90;;
19006;SDS011;9636;47.382;8.480;2023-09-19T01:56:36;0.95;;;0.88;;
19006;SDS011;9636;47.382;8.480;2023-09-19T01:59:10;0.95;;;0.95;;
19006;SDS011;9636;47.382;8.480;2023-09-19T02:01:44;0.75;;;0.75;;
19006;SDS011;9636;47.382;8.480;2023-09-19T02:04:11;0.80;;;0.80;;
19006;SDS011;9636;47.382;8.480;2023-09-19T02:06:39;0.90;;;0.90;;
19006;SDS011;9636;47.382;8.480;2023-09-19T02:09:07;1.05;;;1.05;;
19006;SDS011;9636;47.382;8.480;2023-09-19T02:11:34;1.42;;;0.90;;
19006;SDS011;9636;47.382;8.480;2023-09-19T02:14:01;0.80;;;0.75;;
19006;SDS011;9636;47.382;8.480;2023-09-19T02:16:29;1.00;;;0.90;;
19006;SDS011;9636;47.382;8.480;2023-09-19T02:18:58;1.88;;;1.00;;
19006;SDS011;9636;47.382;8.480;2023-09-19T02:21:26;0.73;;;0.73;;
19006;SDS011;9636;47.382;8.480;2023-09-19T02:23:54;1.23;;;1.00;;
19006;SDS011;9636;47.382;8.480;2023-09-19T02:26:21;0.90;;;0.90;;
19006;SDS011;9636;47.382;8.480;2023-09-19T02:28:48;0.90;;;0.90;;
19006;SDS011;9636;47.382;8.480;2023-09-19T02:31:15;0.80;;;0.80;;
19006;SDS011;9636;47.382;8.480;2023-09-19T02:33:42;1.40;;;0.82;;
19006;SDS011;9636;47.382;8.480;2023-09-19T02:36:12;0.95;;;0.95;;
19006;SDS011;9636;47.382;8.480;2023-09-19T02:38:42;0.70;;;0.70;;
19006;SDS011;9636;47.382;8.480;2023-09-19T02:41:09;0.90;;;0.90;;
19006;SDS011;9636;47.382;8.480;2023-09-19T02:43:36;0.90;;;0.90;;
19006;SDS011;9636;47.382;8.480;2023-09-19T02:46:03;0.80;;;0.80;;
19006;SDS011;9636;47.382;8.480;2023-09-19T02:48:30;0.90;;;0.90;;
19006;SDS011;9636;47.382;8.480;2023-09-19T02:50:59;1.15;;;0.90;;
19006;SDS011;9636;47.382;8.480;2023-09-19T02:53:28;1.15;;;0.98;;
19006;SDS011;9636;47.382;8.480;2023-09-19T02:55:56;1.15;;;1.05;;
19006;SDS011;9636;47.382;8.480;2023-09-19T02:58:24;1.15;;;1.08;;
19006;SDS011;9636;47.382;8.480;2023-09-19T03:00:52;0.80;;;0.80;;
19006;SDS011;9636;47.382;8.480;2023-09-19T03:03:20;0.75;;;0.75;;
19006;SDS011;9636;47.382;8.480;2023-09-19T03:05:48;0.63;;;0.63;;
19006;SDS011;9636;47.382;8.480;2023-09-19T03:08:16;1.10;;;1.00;;
19006;SDS011;9636;47.382;8.480;2023-09-19T03:10:47;1.52;;;0.98;;
19006;SDS011;9636;47.382;8.480;2023-09-19T03:13:14;0.73;;;0.73;;
19006;SDS011;9636;47.382;8.480;2023-09-19T03:15:41;0.80;;;0.80;;
19006;SDS011;9636;47.382;8.480;2023-09-19T03:18:09;1.05;;;0.98;;
19006;SDS011;9636;47.382;8.480;2023-09-19T03:20:36;0.80;;;0.80;;
19006;SDS011;9636;47.382;8.480;2023-09-19T03:23:03;0.80;;;0.80;;
19006;SDS011;9636;47.382;8.480;2023-09-19T03:25:31;0.70;;;0.70;;
19006;SDS011;9636;47.382;8.480;2023-09-19T03:28:02;0.90;;;0.90;;
19006;SDS011;9636;47.382;8.480;2023-09-19T03:30:31;0.70;;;0.70;;
19006;SDS011;9636;47.382;8.480;2023-09-19T03:32:58;1.02;;;0.95;;
19006;SDS011;9636;47.382;8.480;2023-09-19T03:35:25;0.85;;;0.85;;
19006;SDS011;9636;47.382;8.480;2023-09-19T03:37:52;0.98;;;0.90;;
19006;SDS011;9636;47.382;8.480;2023-09-19T03:40:19;0.80;;;0.80;;
19006;SDS011;9636;47.382;8.480;2023-09-19T03:42:46;0.75;;;0.75;;
19006;SDS011;9636;47.382;8.480;2023-09-19T03:45:15;1.05;;;0.90;;
19006;SDS011;9636;47.382;8.480;2023-09-19T03:47:43;0.88;;;0.70;;
19006;SDS011;9636;47.382;8.480;2023-09-19T03:50:12;0.80;;;0.80;;
19006;SDS011;9636;47.382;8.480;2023-09-19T03:52:42;0.80;;;0.80;;
19006;SDS011;9636;47.382;8.480;2023-09-19T03:55:09;0.70;;;0.70;;
19006;SDS011;9636;47.382;8.480;2023-09-19T03:57:35;0.80;;;0.80;;
19006;SDS011;9636;47.382;8.480;2023-09-19T04:00:03;1.50;;;0.70;;
19006;SDS011;9636;47.382;8.480;2023-09-19T04:02:37;1.50;;;0.90;;
19006;SDS011;9636;47.382;8.480;2023-09-19T04:05:05;0.80;;;0.80;;
19006;SDS011;9636;47.382;8.480;2023-09-19T04:07:32;0.95;;;0.95;;
19006;SDS011;9636;47.382;8.480;2023-09-19T04:09:59;0.80;;;0.80;;
19006;SDS011;9636;47.382;8.480;2023-09-19T04:12:26;1.17;;;0.85;;
19006;SDS011;9636;47.382;8.480;2023-09-19T04:14:53;0.85;;;0.85;;
19006;SDS011;9636;47.382;8.480;2023-09-19T04:17:20;0.80;;;0.80;;
19006;SDS011;9636;47.382;8.480;2023-09-19T04:19:49;1.20;;;0.70;;
19006;SDS011;9636;47.382;8.480;2023-09-19T04:22:16;0.80;;;0.80;;
19006;SDS011;9636;47.382;8.480;2023-09-19T04:24:43;0.98;;;0.93;;
19006;SDS011;9636;47.382;8.480;2023-09-19T04:27:10;0.80;;;0.70;;
19006;SDS011;9636;47.382;8.480;2023-09-19T04:29:37;0.70;;;0.70;;
19006;SDS011;9636;47.382;8.480;2023-09-19T04:32:04;0.82;;;0.82;;
19006;SDS011;9636;47.382;8.480;2023-09-19T04:34:32;0.82;;;0.80;;
19006;SDS011;9636;47.382;8.480;2023-09-19T04:37:00;1.00;;;1.00;;
19006;SDS011;9636;47.382;8.480;2023-09-19T04:39:28;0.80;;;0.80;;
19006;SDS011;9636;47.382;8.480;2023-09-19T04:41:55;0.68;;;0.68;;
19006;SDS011;9636;47.382;8.480;2023-09-19T04:44:23;0.70;;;0.70;;
19006;SDS011;9636;47.382;8.480;2023-09-19T04:46:49;0.60;;;0.60;;
19006;SDS011;9636;47.382;8.480;2023-09-19T04:49:16;0.70;;;0.70;;
19006;SDS011;9636;47.382;8.480;2023-09-19T04:51:43;0.80;;;0.80;;
19006;SDS011;9636;47.382;8.480;2023-09-19T04:54:13;0.70;;;0.70;;
19006;SDS011;9636;47.382;8.480;2023-09-19T04:56:40;0.70;;;0.70;;
19006;SDS011;9636;47.382;8.480;2023-09-19T04:59:07;0.70;;;0.70;;
19006;SDS011;9636;47.382;8.480;2023-09-19T05:01:35;0.80;;;0.80;;
19006;SDS011;9636;47.382;8.480;2023-09-19T05:04:02;0.70;;;0.70;;
19006;SDS011;9636;47.382;8.480;2023-09-19T05:06:30;0.80;;;0.80;;
19006;SDS011;9636;47.382;8.480;2023-09-19T05:08:56;0.90;;;0.90;;
19006;SDS011;9636;47.382;8.480;2023-09-19T05:11:25;0.70;;;0.70;;
19006;SDS011;9636;47.382;8.480;2023-09-19T05:13:52;1.20;;;0.80;;
19006;SDS011;9636;47.382;8.480;2023-09-19T05:16:19;0.80;;;0.80;;
19006;SDS011;9636;47.382;8.480;2023-09-19T05:18:45;0.70;;;0.70;;
19006;SDS011;9636;47.382;8.480;2023-09-19T05:21:12;0.77;;;0.77;;
19006;SDS011;9636;47.382;8.480;2023-09-19T05:23:39;0.60;;;0.60;;
19006;SDS011;9636;47.382;8.480;2023-09-19T05:26:07;0.63;;;0.63;;
19006;SDS011;9636;47.382;8.480;2023-09-19T05:28:37;1.02;;;0.93;;
19006;SDS011;9636;47.382;8.480;2023-09-19T05:31:03;0.75;;;0.73;;
19006;SDS011;9636;47.382;8.480;2023-09-19T05:33:30;0.73;;;0.73;;
19006;SDS011;9636;47.382;8.480;2023-09-19T05:35:58;0.80;;;0.80;;
19006;SDS011;9636;47.382;8.480;2023-09-19T05:38:25;0.60;;;0.60;;
19006;SDS011;9636;47.382;8.480;2023-09-19T05:40:52;0.70;;;0.70;;
19006;SDS011;9636;47.382;8.480;2023-09-19T05:43:19;0.77;;;0.77;;
19006;SDS011;9636;47.382;8.480;2023-09-19T05:45:47;0.60;;;0.60;;
19006;SDS011;9636;47.382;8.480;2023-09-19T05:48:17;0.65;;;0.65;;
19006;SDS011;9636;47.382;8.480;2023-09-19T05:50:46;0.80;;;0.80;;
19006;SDS011;9636;47.382;8.480;2023-09-19T05:53:13;0.60;;;0.60;;
19006;SDS011;9636;47.382;8.480;2023-09-19T05:55:41;0.63;;;0.63;;
19006;SDS011;9636;47.382;8.480;2023-09-19T05:58:08;0.60;;;0.60;;
19006;SDS011;9636;47.382;8.480;2023-09-19T06:00:39;0.77;;;0.77;;
19006;SDS011;9636;47.382;8.480;2023-09-19T06:03:09;0.80;;;0.80;;
19006;SDS011;9636;47.382;8.480;2023-09-19T06:05:36;0.80;;;0.80;;
19006;SDS011;9636;47.382;8.480;2023-09-19T06:08:06;0.82;;;0.70;;
19006;SDS011;9636;47.382;8.480;2023-09-19T06:10:34;0.65;;;0.65;;
19006;SDS011;9636;47.382;8.480;2023-09-19T06:13:01;0.77;;;0.77;;
19006;SDS011;9636;47.382;8.480;2023-09-19T06:15:30;0.70;;;0.70;;
19006;SDS011;9636;47.382;8.480;2023-09-19T06:17:58;0.57;;;0.57;;
19006;SDS011;9636;47.382;8.480;2023-09-19T06:20:29;0.70;;;0.70;;
19006;SDS011;9636;47.382;8.480;2023-09-19T06:22:56;0.68;;;0.68;;
19006;SDS011;9636;47.382;8.480;2023-09-19T06:25:24;0.73;;;0.70;;
19006;SDS011;9636;47.382;8.480;2023-09-19T06:27:51;0.70;;;0.70;;
19006;SDS011;9636;47.382;8.480;2023-09-19T06:30:19;0.75;;;0.75;;
19006;SDS011;9636;47.382;8.480;2023-09-19T06:32:46;2.42;;;0.70;;
19006;SDS011;9636;47.382;8.480;2023-09-19T06:35:13;0.80;;;0.80;;
19006;SDS011;9636;47.382;8.480;2023-09-19T06:37:43;0.60;;;0.60;;
19006;SDS011;9636;47.382;8.480;2023-09-19T06:40:10;1.13;;;0.60;;
19006;SDS011;9636;47.382;8.480;2023-09-19T06:42:39;0.95;;;0.80;;
19006;SDS011;9636;47.382;8.480;2023-09-19T06:45:07;0.68;;;0.68;;
19006;SDS011;9636;47.382;8.480;2023-09-19T06:47:36;0.80;;;0.70;;
19006;SDS011;9636;47.382;8.480;2023-09-19T06:50:03;1.95;;;0.88;;
19006;SDS011;9636;47.382;8.480;2023-09-19T06:52:31;0.60;;;0.60;;
19006;SDS011;9636;47.382;8.480;2023-09-19T06:54:59;0.75;;;0.70;;
19006;SDS011;9636;47.382;8.480;2023-09-19T06:57:28;0.70;;;0.70;;
19006;SDS011;9636;47.382;8.480;2023-09-19T06:59:55;1.50;;;0.80;;
19006;SDS011;9636;47.382;8.480;2023-09-19T07:02:22;0.60;;;0.60;;
19006;SDS011;9636;47.382;8.480;2023-09-19T07:04:49;1.23;;;0.65;;
19006;SDS011;9636;47.382;8.480;2023-09-19T07:07:16;0.68;;;0.68;;
19006;SDS011;9636;47.382;8.480;2023-09-19T07:09:43;0.60;;;0.60;;
19006;SDS011;9636;47.382;8.480;2023-09-19T07:12:11;0.70;;;0.70;;
19006;SDS011;9636;47.382;8.480;2023-09-19T07:14:39;0.60;;;0.60;;
19006;SDS011;9636;47.382;8.480;2023-09-19T07:17:06;0.88;;;0.68;;
19006;SDS011;9636;47.382;8.480;2023-09-19T07:19:32;0.82;;;0.70;;
19006;SDS011;9636;47.382;8.480;2023-09-19T07:21:59;0.70;;;0.70;;
19006;SDS011;9636;47.382;8.480;2023-09-19T07:24:27;0.70;;;0.70;;
19006;SDS011;9636;47.382;8.480;2023-09-19T07:26:54;0.77;;;0.77;;
19006;SDS011;9636;47.382;8.480;2023-09-19T07:29:22;0.73;;;0.73;;
19006;SDS011;9636;47.382;8.480;2023-09-19T07:31:51;0.65;;;0.65;;
19006;SDS011;9636;47.382;8.480;2023-09-19T07:34:18;0.70;;;0.70;;
19006;SDS011;9636;47.382;8.480;2023-09-19T07:36:46;0.60;;;0.60;;
19006;SDS011;9636;47.382;8.480;2023-09-19T07:39:13;0.80;;;0.80;;
19006;SDS011;9636;47.382;8.480;2023-09-19T07:41:39;0.60;;;0.60;;
19006;SDS011;9636;47.382;8.480;2023-09-19T07:44:07;0.60;;;0.60;;
19006;SDS011;9636;47.382;8.480;2023-09-19T07:46:35;0.95;;;0.70;;
19006;SDS011;9636;47.382;8.480;2023-09-19T07:49:02;0.90;;;0.77;;
19006;SDS011;9636;47.382;8.480;2023-09-19T07:51:30;0.82;;;0.68;;
19006;SDS011;9636;47.382;8.480;2023-09-19T07:53:58;0.68;;;0.68;;
19006;SDS011;9636;47.382;8.480;2023-09-19T07:56:24;0.70;;;0.70;;
19006;SDS011;9636;47.382;8.480;2023-09-19T07:58:52;0.80;;;0.60;;
19006;SDS011;9636;47.382;8.480;2023-09-19T08:01:19;0.73;;;0.73;;
19006;SDS011;9636;47.382;8.480;2023-09-19T08:03:50;0.70;;;0.70;;
19006;SDS011;9636;47.382;8.480;2023-09-19T08:06:17;0.60;;;0.60;;
19006;SDS011;9636;47.382;8.480;2023-09-19T08:08:45;0.80;;;0.80;;
19006;SDS011;9636;47.382;8.480;2023-09-19T08:11:12;0.73;;;0.73;;
19006;SDS011;9636;47.382;8.480;2023-09-19T08:13:46;0.60;;;0.60;;
19006;SDS011;9636;47.382;8.480;2023-09-19T08:16:14;1.15;;;0.80;;
19006;SDS011;9636;47.382;8.480;2023-09-19T08:18:41;0.52;;;0.52;;
19006;SDS011;9636;47.382;8.480;2023-09-19T08:21:11;0.70;;;0.70;;
19006;SDS011;9636;47.382;8.480;2023-09-19T08:23:40;0.60;;;0.60;;
19006;SDS011;9636;47.382;8.480;2023-09-19T08:26:08;0.70;;;0.60;;
19006;SDS011;9636;47.382;8.480;2023-09-19T08:28:35;0.60;;;0.60;;
19006;SDS011;9636;47.382;8.480;2023-09-19T08:31:06;0.60;;;0.60;;
19006;SDS011;9636;47.382;8.480;2023-09-19T08:33:34;0.60;;;0.60;;
19006;SDS011;9636;47.382;8.480;2023-09-19T08:36:02;0.60;;;0.60;;
19006;SDS011;9636;47.382;8.480;2023-09-19T08:38:31;1.08;;;0.80;;
19006;SDS011;9636;47.382;8.480;2023-09-19T08:41:00;0.65;;;0.60;;
19006;SDS011;9636;47.382;8.480;2023-09-19T08:43:27;0.70;;;0.70;;
19006;SDS011;9636;47.382;8.480;2023-09-19T08:45:55;0.70;;;0.70;;
19006;SDS011;9636;47.382;8.480;2023-09-19T08:48:28;0.63;;;0.60;;
19006;SDS011;9636;47.382;8.480;2023-09-19T08:51:03;0.80;;;0.80;;
19006;SDS011;9636;47.382;8.480;2023-09-19T08:53:36;0.60;;;0.60;;
19006;SDS011;9636;47.382;8.480;2023-09-19T08:56:08;0.50;;;0.50;;
19006;SDS011;9636;47.382;8.480;2023-09-19T08:58:39;0.60;;;0.60;;
19006;SDS011;9636;47.382;8.480;2023-09-19T09:01:13;0.70;;;0.70;;
19006;SDS011;9636;47.382;8.480;2023-09-19T09:03:42;0.60;;;0.60;;
19006;SDS011;9636;47.382;8.480;2023-09-19T09:06:13;0.60;;;0.60;;
19006;SDS011;9636;47.382;8.480;2023-09-19T09:08:43;0.90;;;0.63;;
19006;SDS011;9636;47.382;8.480;2023-09-19T09:11:10;0.57;;;0.57;;
19006;SDS011;9636;47.382;8.480;2023-09-19T09:13:37;0.60;;;0.60;;
19006;SDS011;9636;47.382;8.480;2023-09-19T09:16:06;0.65;;;0.65;;
19006;SDS011;9636;47.382;8.480;2023-09-19T09:18:33;0.90;;;0.90;;
19006;SDS011;9636;47.382;8.480;2023-09-19T09:21:00;0.90;;;0.80;;
19006;SDS011;9636;47.382;8.480;2023-09-19T09:23:26;0.70;;;0.70;;
19006;SDS011;9636;47.382;8.480;2023-09-19T09:25:56;0.65;;;0.65;;
19006;SDS011;9636;47.382;8.480;2023-09-19T09:28:28;0.60;;;0.60;;
19006;SDS011;9636;47.382;8.480;2023-09-19T09:30:55;0.80;;;0.80;;
19006;SDS011;9636;47.382;8.480;2023-09-19T09:33:23;0.65;;;0.63;;
19006;SDS011;9636;47.382;8.480;2023-09-19T09:35:51;0.60;;;0.60;;
19006;SDS011;9636;47.382;8.480;2023-09-19T09:38:21;0.50;;;0.50;;
19006;SDS011;9636;47.382;8.480;2023-09-19T09:40:53;0.60;;;0.60;;
19006;SDS011;9636;47.382;8.480;2023-09-19T09:43:32;0.80;;;0.70;;
19006;SDS011;9636;47.382;8.480;2023-09-19T09:46:10;0.70;;;0.60;;
19006;SDS011;9636;47.382;8.480;2023-09-19T09:48:55;0.68;;;0.68;;
19006;SDS011;9636;47.382;8.480;2023-09-19T09:51:50;0.57;;;0.57;;
19006;SDS011;9636;47.382;8.480;2023-09-19T09:54:25;0.68;;;0.68;;
19006;SDS011;9636;47.382;8.480;2023-09-19T09:57:02;1.45;;;0.63;;
19006;SDS011;9636;47.382;8.480;2023-09-19T09:59:45;0.68;;;0.60;;
19006;SDS011;9636;47.382;8.480;2023-09-19T10:02:14;0.60;;;0.60;;
19006;SDS011;9636;47.382;8.480;2023-09-19T10:04:50;0.68;;;0.68;;
19006;SDS011;9636;47.382;8.480;2023-09-19T10:07:28;0.50;;;0.50;;
19006;SDS011;9636;47.382;8.480;2023-09-19T10:10:01;0.70;;;0.70;;
19006;SDS011;9636;47.382;8.480;2023-09-19T10:12:42;0.70;;;0.70;;
19006;SDS011;9636;47.382;8.480;2023-09-19T10:15:11;0.55;;;0.55;;
19006;SDS011;9636;47.382;8.480;2023-09-19T10:17:42;0.52;;;0.52;;
19006;SDS011;9636;47.382;8.480;2023-09-19T10:20:12;1.45;;;0.63;;
19006;SDS011;9636;47.382;8.480;2023-09-19T10:23:05;0.63;;;0.63;;
19006;SDS011;9636;47.382;8.480;2023-09-19T10:25:36;0.60;;;0.60;;
19006;SDS011;9636;47.382;8.480;2023-09-19T10:28:05;0.63;;;0.63;;
19006;SDS011;9636;47.382;8.480;2023-09-19T10:30:36;0.60;;;0.60;;
19006;SDS011;9636;47.382;8.480;2023-09-19T10:33:07;0.60;;;0.60;;
19006;SDS011;9636;47.382;8.480;2023-09-19T10:35:36;0.60;;;0.60;;
19006;SDS011;9636;47.382;8.480;2023-09-19T10:38:07;0.50;;;0.50;;
19006;SDS011;9636;47.382;8.480;2023-09-19T10:40:36;0.60;;;0.60;;
19006;SDS011;9636;47.382;8.480;2023-09-19T10:43:08;0.60;;;0.60;;
19006;SDS011;9636;47.382;8.480;2023-09-19T10:45:38;0.40;;;0.40;;
19006;SDS011;9636;47.382;8.480;2023-09-19T10:48:07;1.33;;;0.70;;
19006;SDS011;9636;47.382;8.480;2023-09-19T10:50:35;0.70;;;0.70;;
19006;SDS011;9636;47.382;8.480;2023-09-19T10:53:11;0.60;;;0.60;;
19006;SDS011;9636;47.382;8.480;2023-09-19T10:55:40;0.70;;;0.70;;
19006;SDS011;9636;47.382;8.480;2023-09-19T10:58:15;0.75;;;0.75;;
19006;SDS011;9636;47.382;8.480;2023-09-19T11:00:54;0.55;;;0.55;;
19006;SDS011;9636;47.382;8.480;2023-09-19T11:03:22;0.68;;;0.65;;
19006;SDS011;9636;47.382;8.480;2023-09-19T11:06:01;0.73;;;0.63;;
19006;SDS011;9636;47.382;8.480;2023-09-19T11:08:31;1.10;;;0.70;;
19006;SDS011;9636;47.382;8.480;2023-09-19T11:11:39;0.82;;;0.60;;
19006;SDS011;9636;47.382;8.480;2023-09-19T11:14:13;0.70;;;0.70;;
19006;SDS011;9636;47.382;8.480;2023-09-19T11:16:41;0.70;;;0.70;;
19006;SDS011;9636;47.382;8.480;2023-09-19T11:23:19;0.55;;;0.55;;
19006;SDS011;9636;47.382;8.480;2023-09-19T11:25:51;0.57;;;0.57;;
19006;SDS011;9636;47.382;8.480;2023-09-19T11:40:27;1.20;;;0.57;;
19006;SDS011;9636;47.382;8.480;2023-09-19T11:42:57;0.95;;;0.70;;
19006;SDS011;9636;47.382;8.480;2023-09-19T11:48:27;1.77;;;1.23;;
19006;SDS011;9636;47.382;8.480;2023-09-19T11:50:55;2.33;;;1.40;;
19006;SDS011;9636;47.382;8.480;2023-09-19T11:53:24;1.45;;;1.20;;
19006;SDS011;9636;47.382;8.480;2023-09-19T11:56:01;1.38;;;1.20;;
19006;SDS011;9636;47.382;8.480;2023-09-19T11:58:33;1.40;;;1.10;;
19006;SDS011;9636;47.382;8.480;2023-09-19T12:01:02;1.85;;;1.13;;
19006;SDS011;9636;47.382;8.480;2023-09-19T12:03:37;2.05;;;1.15;;
19006;SDS011;9636;47.382;8.480;2023-09-19T12:06:11;1.80;;;1.20;;
19006;SDS011;9636;47.382;8.480;2023-09-19T12:08:39;2.10;;;1.55;;
19006;SDS011;9636;47.382;8.480;2023-09-19T12:11:11;3.63;;;1.38;;
19006;SDS011;9636;47.382;8.480;2023-09-19T12:13:42;1.45;;;1.20;;
19006;SDS011;9636;47.382;8.480;2023-09-19T12:16:11;2.58;;;1.30;;
19006;SDS011;9636;47.382;8.480;2023-09-19T12:18:42;2.22;;;1.25;;
19006;SDS011;9636;47.382;8.480;2023-09-19T12:21:24;1.23;;;1.10;;
19006;SDS011;9636;47.382;8.480;2023-09-19T12:23:57;2.65;;;1.35;;
19006;SDS011;9636;47.382;8.480;2023-09-19T12:26:26;2.30;;;1.30;;
19006;SDS011;9636;47.382;8.480;2023-09-19T12:28:55;3.50;;;1.42;;
19006;SDS011;9636;47.382;8.480;2023-09-19T12:31:23;3.05;;;1.23;;
19006;SDS011;9636;47.382;8.480;2023-09-19T12:33:54;2.60;;;1.52;;
19006;SDS011;9636;47.382;8.480;2023-09-19T12:36:21;2.97;;;1.15;;
19006;SDS011;9636;47.382;8.480;2023-09-19T12:38:54;1.48;;;1.38;;
19006;SDS011;9636;47.382;8.480;2023-09-19T12:41:21;3.67;;;1.40;;
19006;SDS011;9636;47.382;8.480;2023-09-19T12:43:48;1.60;;;1.15;;
19006;SDS011;9636;47.382;8.480;2023-09-19T12:46:20;3.55;;;1.40;;
19006;SDS011;9636;47.382;8.480;2023-09-19T12:48:51;1.48;;;1.00;;
19006;SDS011;9636;47.382;8.480;2023-09-19T12:51:42;1.48;;;0.95;;
19006;SDS011;9636;47.382;8.480;2023-09-19T12:54:09;2.20;;;1.30;;
19006;SDS011;9636;47.382;8.480;2023-09-19T12:56:39;2.88;;;1.30;;
19006;SDS011;9636;47.382;8.480;2023-09-19T12:59:09;5.18;;;1.55;;
19006;SDS011;9636;47.382;8.480;2023-09-19T13:01:40;3.78;;;1.60;;
19006;SDS011;9636;47.382;8.480;2023-09-19T13:04:14;1.35;;;1.25;;
19006;SDS011;9636;47.382;8.480;2023-09-19T13:06:44;1.90;;;1.27;;
19006;SDS011;9636;47.382;8.480;2023-09-19T13:09:13;1.33;;;1.23;;
19006;SDS011;9636;47.382;8.480;2023-09-19T13:11:41;1.42;;;1.27;;
19006;SDS011;9636;47.382;8.480;2023-09-19T13:14:13;2.67;;;1.30;;
19006;SDS011;9636;47.382;8.480;2023-09-19T13:16:53;1.85;;;1.30;;
19006;SDS011;9636;47.382;8.480;2023-09-19T13:19:35;1.85;;;1.13;;
19006;SDS011;9636;47.382;8.480;2023-09-19T13:22:02;1.75;;;1.38;;
19006;SDS011;9636;47.382;8.480;2023-09-19T13:24:29;2.47;;;1.30;;
19006;SDS011;9636;47.382;8.480;2023-09-19T13:26:58;1.50;;;1.00;;
19006;SDS011;9636;47.382;8.480;2023-09-19T13:29:26;11.07;;;1.20;;
19006;SDS011;9636;47.382;8.480;2023-09-19T13:31:54;3.42;;;1.10;;
19006;SDS011;9636;47.382;8.480;2023-09-19T13:34:21;1.15;;;0.90;;
19006;SDS011;9636;47.382;8.480;2023-09-19T13:36:48;1.15;;;1.08;;
19006;SDS011;9636;47.382;8.480;2023-09-19T13:39:15;2.70;;;1.27;;
19006;SDS011;9636;47.382;8.480;2023-09-19T13:41:43;3.75;;;1.27;;
19006;SDS011;9636;47.382;8.480;2023-09-19T13:44:11;1.30;;;1.20;;
19006;SDS011;9636;47.382;8.480;2023-09-19T13:46:39;2.25;;;1.00;;
19006;SDS011;9636;47.382;8.480;2023-09-19T13:49:10;1.23;;;1.13;;
19006;SDS011;9636;47.382;8.480;2023-09-19T13:51:36;1.75;;;1.27;;
19006;SDS011;9636;47.382;8.480;2023-09-19T13:54:03;3.58;;;1.10;;
19006;SDS011;9636;47.382;8.480;2023-09-19T13:56:30;1.63;;;1.00;;
19006;SDS011;9636;47.382;8.480;2023-09-19T13:58:58;3.65;;;1.10;;
19006;SDS011;9636;47.382;8.480;2023-09-19T14:01:25;1.50;;;1.20;;
19006;SDS011;9636;47.382;8.480;2023-09-19T14:03:52;1.33;;;1.02;;
19006;SDS011;9636;47.382;8.480;2023-09-19T14:06:23;3.08;;;1.35;;
19006;SDS011;9636;47.382;8.480;2023-09-19T14:08:50;1.40;;;0.98;;
19006;SDS011;9636;47.382;8.480;2023-09-19T14:11:20;1.20;;;1.10;;
19006;SDS011;9636;47.382;8.480;2023-09-19T14:13:47;1.20;;;1.10;;
19006;SDS011;9636;47.382;8.480;2023-09-19T14:16:14;0.93;;;0.90;;
19006;SDS011;9636;47.382;8.480;2023-09-19T14:18:42;1.85;;;1.10;;
19006;SDS011;9636;47.382;8.480;2023-09-19T14:21:10;3.53;;;1.15;;
19006;SDS011;9636;47.382;8.480;2023-09-19T14:23:39;1.98;;;0.98;;
19006;SDS011;9636;47.382;8.480;2023-09-19T14:26:06;3.25;;;1.45;;
19006;SDS011;9636;47.382;8.480;2023-09-19T14:28:34;3.08;;;1.50;;
19006;SDS011;9636;47.382;8.480;2023-09-19T14:31:04;2.35;;;1.10;;
19006;SDS011;9636;47.382;8.480;2023-09-19T14:33:32;1.73;;;1.33;;
19006;SDS011;9636;47.382;8.480;2023-09-19T14:36:02;1.90;;;1.35;;
19006;SDS011;9636;47.382;8.480;2023-09-19T14:38:31;1.92;;;1.10;;
19006;SDS011;9636;47.382;8.480;2023-09-19T14:41:00;2.38;;;1.42;;
19006;SDS011;9636;47.382;8.480;2023-09-19T14:43:27;1.52;;;1.42;;
19006;SDS011;9636;47.382;8.480;2023-09-19T14:45:55;1.60;;;1.45;;
19006;SDS011;9636;47.382;8.480;2023-09-19T14:48:23;1.55;;;1.30;;
19006;SDS011;9636;47.382;8.480;2023-09-19T14:50:50;3.53;;;1.50;;
19006;SDS011;9636;47.382;8.480;2023-09-19T14:53:17;2.42;;;1.33;;
19006;SDS011;9636;47.382;8.480;2023-09-19T14:55:45;1.25;;;1.05;;
19006;SDS011;9636;47.382;8.480;2023-09-19T14:58:14;2.58;;;1.30;;
19006;SDS011;9636;47.382;8.480;2023-09-19T15:00:41;1.08;;;1.05;;
19006;SDS011;9636;47.382;8.480;2023-09-19T15:03:10;2.00;;;1.42;;
19006;SDS011;9636;47.382;8.480;2023-09-19T15:05:38;2.92;;;1.23;;
19006;SDS011;9636;47.382;8.480;2023-09-19T15:08:05;4.28;;;1.50;;
19006;SDS011;9636;47.382;8.480;2023-09-19T15:10:32;1.70;;;1.23;;
19006;SDS011;9636;47.382;8.480;2023-09-19T15:12:59;2.58;;;1.10;;
19006;SDS011;9636;47.382;8.480;2023-09-19T15:15:27;1.17;;;1.08;;
19006;SDS011;9636;47.382;8.480;2023-09-19T15:17:54;1.40;;;1.30;;
19006;SDS011;9636;47.382;8.480;2023-09-19T15:20:21;2.13;;;1.30;;
19006;SDS011;9636;47.382;8.480;2023-09-19T15:22:47;1.55;;;1.20;;
19006;SDS011;9636;47.382;8.480;2023-09-19T15:25:16;1.30;;;1.20;;
19006;SDS011;9636;47.382;8.480;2023-09-19T15:27:43;2.60;;;1.40;;
19006;SDS011;9636;47.382;8.480;2023-09-19T15:30:10;1.35;;;1.20;;
19006;SDS011;9636;47.382;8.480;2023-09-19T15:32:41;1.20;;;1.10;;
19006;SDS011;9636;47.382;8.480;2023-09-19T15:35:08;6.03;;;1.40;;